Time;durP1;ratioP1;P1;durP2;ratioP2;P2;SDS_P1;SDS_P2;PMS_P1;PMS_P2;Temp;Humidity;BMP_temperature;BMP_pressure;BME280_temperature;BME280_humidity;BME280_pressure;Samples;Min_cycle;Max_cycle;Signal;HPM_P1;HPM_P2
2021/10/17 00:00:15;;;;;;;1.15;0.50;;;;;;;;;;5113981;27;20023;-61
2021/10/17 00:02:41;;;;;;;0.55;0.40;;;;;;;;;;5113721;27;20031;-57
2021/10/17 00:05:08;;;;;;;1.33;0.47;;;;;;;;;;5112844;27;20706;-57
2021/10/17 00:07:34;;;;;;;0.55;0.50;;;;;;;;;;5116561;27;20031;-58
2021/10/17 00:09:59;;;;;;;0.50;0.50;;;;;;;;;;5112286;27;20124;-58
2021/10/17 00:12:25;;;;;;;0.43;0.40;;;;;;;;;;5110825;27;20024;-58
2021/10/17 00:14:50;;;;;;;2.85;0.40;;;;;;;;;;5095572;27;20042;-57
2021/10/17 00:17:16;;;;;;;0.40;0.40;;;;;;;;;;5114990;27;20031;-58
2021/10/17 00:19:41;;;;;;;0.40;0.40;;;;;;;;;;5115593;27;20034;-58
2021/10/17 00:22:07;;;;;;;1.08;0.40;;;;;;;;;;5110483;27;20034;-58
2021/10/17 00:24:32;;;;;;;1.08;0.30;;;;;;;;;;5107385;27;20402;-57
2021/10/17 00:26:58;;;;;;;0.40;0.40;;;;;;;;;;5111632;27;20037;-58
2021/10/17 00:29:24;;;;;;;0.22;0.22;;;;;;;;;;5106530;27;20024;-58
2021/10/17 00:31:50;;;;;;;0.28;0.28;;;;;;;;;;5108985;27;20031;-58
2021/10/17 00:34:16;;;;;;;0.40;0.30;;;;;;;;;;5110538;28;20057;-57
2021/10/17 00:36:41;;;;;;;0.30;0.30;;;;;;;;;;5111173;27;20031;-57
2021/10/17 00:39:07;;;;;;;0.35;0.30;;;;;;;;;;5109981;27;20031;-57
2021/10/17 00:41:33;;;;;;;1.38;0.30;;;;;;;;;;5088538;28;20049;-58
2021/10/17 00:44:00;;;;;;;0.65;0.40;;;;;;;;;;5093773;28;20134;-59
2021/10/17 00:46:27;;;;;;;0.75;0.30;;;;;;;;;;5110395;28;20035;-58
2021/10/17 00:48:53;;;;;;;1.45;0.30;;;;;;;;;;5113342;28;20032;-57
2021/10/17 00:51:19;;;;;;;0.40;0.40;;;;;;;;;;5107889;28;20440;-59
2021/10/17 00:53:47;;;;;;;0.95;0.30;;;;;;;;;;5109545;28;20027;-58
2021/10/17 00:56:13;;;;;;;0.68;0.40;;;;;;;;;;5111142;28;20439;-57
2021/10/17 00:58:38;;;;;;;0.50;0.50;;;;;;;;;;5111011;28;20077;-57
2021/10/17 01:01:04;;;;;;;0.50;0.50;;;;;;;;;;5065343;28;20036;-57
2021/10/17 01:03:29;;;;;;;0.60;0.52;;;;;;;;;;5033089;28;20110;-58
2021/10/17 01:05:56;;;;;;;0.52;0.52;;;;;;;;;;5050076;28;20029;-58
2021/10/17 01:08:22;;;;;;;1.98;0.60;;;;;;;;;;5056412;28;20095;-58
2021/10/17 01:10:48;;;;;;;2.47;0.70;;;;;;;;;;5041493;28;20017;-58
2021/10/17 01:13:21;;;;;;;0.47;0.40;;;;;;;;;;5054020;28;20391;-59
2021/10/17 01:15:55;;;;;;;2.70;1.00;;;;;;;;;;5052562;28;20446;-57
2021/10/17 01:18:22;;;;;;;1.05;0.50;;;;;;;;;;5054286;28;20111;-57
2021/10/17 01:20:48;;;;;;;1.15;0.57;;;;;;;;;;5053488;28;20024;-58
2021/10/17 01:23:14;;;;;;;0.60;0.60;;;;;;;;;;5035090;28;20036;-58
2021/10/17 01:25:40;;;;;;;2.08;0.73;;;;;;;;;;5058550;28;20048;-58
2021/10/17 01:28:05;;;;;;;0.68;0.55;;;;;;;;;;5051130;28;20563;-58
2021/10/17 01:30:32;;;;;;;1.27;0.55;;;;;;;;;;5057511;28;20028;-58
2021/10/17 01:32:58;;;;;;;0.70;0.63;;;;;;;;;;5052630;28;20567;-58
2021/10/17 01:35:24;;;;;;;3.20;0.80;;;;;;;;;;5055385;28;20029;-58
2021/10/17 01:37:50;;;;;;;1.30;0.40;;;;;;;;;;5056544;28;20032;-58
2021/10/17 01:40:15;;;;;;;1.02;0.65;;;;;;;;;;5059268;28;20147;-58
2021/10/17 01:42:41;;;;;;;0.80;0.70;;;;;;;;;;5056288;28;20256;-58
2021/10/17 01:45:07;;;;;;;0.82;0.60;;;;;;;;;;5061512;28;20029;-58
2021/10/17 01:47:32;;;;;;;1.15;0.43;;;;;;;;;;5054660;28;20036;-58
2021/10/17 01:49:58;;;;;;;0.98;0.40;;;;;;;;;;5056817;28;20033;-58
2021/10/17 01:52:23;;;;;;;1.95;0.50;;;;;;;;;;5040534;28;20036;-58
2021/10/17 01:54:49;;;;;;;0.80;0.63;;;;;;;;;;5056442;28;20561;-58
2021/10/17 01:57:14;;;;;;;2.17;0.43;;;;;;;;;;5037734;28;20079;-58
2021/10/17 01:59:40;;;;;;;1.75;0.30;;;;;;;;;;5058401;28;20411;-58
2021/10/17 02:02:05;;;;;;;0.55;0.40;;;;;;;;;;5051978;28;20124;-58
2021/10/17 02:04:31;;;;;;;2.83;0.50;;;;;;;;;;5057525;28;20233;-59
2021/10/17 02:06:56;;;;;;;1.55;0.43;;;;;;;;;;5055148;28;20482;-58
2021/10/17 02:09:22;;;;;;;1.88;0.60;;;;;;;;;;5059724;28;20102;-59
2021/10/17 02:11:47;;;;;;;0.80;0.52;;;;;;;;;;5051350;28;20064;-58
2021/10/17 02:14:13;;;;;;;2.08;0.40;;;;;;;;;;5040871;28;20106;-58
2021/10/17 02:16:38;;;;;;;1.85;0.40;;;;;;;;;;5058742;28;20044;-58
2021/10/17 02:19:04;;;;;;;0.90;0.30;;;;;;;;;;5058020;28;20399;-58
2021/10/17 02:21:29;;;;;;;0.75;0.40;;;;;;;;;;5055885;28;20045;-58
2021/10/17 02:23:55;;;;;;;0.40;0.40;;;;;;;;;;5057451;28;20029;-58
2021/10/17 02:26:21;;;;;;;1.95;1.10;;;;;;;;;;5057355;28;20123;-58
2021/10/17 02:28:46;;;;;;;5.13;0.65;;;;;;;;;;5058364;28;20036;-58
2021/10/17 02:31:12;;;;;;;0.70;0.47;;;;;;;;;;5051920;28;20033;-58
2021/10/17 02:33:39;;;;;;;0.80;0.50;;;;;;;;;;5056389;28;20032;-59
2021/10/17 02:36:05;;;;;;;0.43;0.43;;;;;;;;;;5059561;28;20033;-58
2021/10/17 02:38:31;;;;;;;0.50;0.50;;;;;;;;;;5054049;28;20020;-58
2021/10/17 02:40:56;;;;;;;0.50;0.30;;;;;;;;;;5056013;28;20917;-59
2021/10/17 02:43:22;;;;;;;3.60;0.63;;;;;;;;;;5052046;28;20049;-59
2021/10/17 02:45:47;;;;;;;0.47;0.45;;;;;;;;;;5053550;28;20577;-59
2021/10/17 02:48:13;;;;;;;0.68;0.47;;;;;;;;;;5054911;28;20047;-58
2021/10/17 02:50:39;;;;;;;0.60;0.50;;;;;;;;;;5054931;28;20109;-58
2021/10/17 02:53:05;;;;;;;1.40;0.60;;;;;;;;;;5054713;28;20047;-58
2021/10/17 02:55:30;;;;;;;0.60;0.40;;;;;;;;;;5057563;28;20411;-58
2021/10/17 02:57:56;;;;;;;0.75;0.40;;;;;;;;;;5039246;28;20126;-59
2021/10/17 03:00:22;;;;;;;1.55;0.50;;;;;;;;;;5040444;28;20036;-59
2021/10/17 03:02:47;;;;;;;0.47;0.45;;;;;;;;;;5054841;28;20434;-58
2021/10/17 03:05:13;;;;;;;1.70;1.13;;;;;;;;;;5054158;28;20033;-58
2021/10/17 03:07:38;;;;;;;0.90;0.47;;;;;;;;;;5052063;28;20403;-59
2021/10/17 03:10:06;;;;;;;1.88;0.40;;;;;;;;;;5053850;28;20028;-58
2021/10/17 03:12:31;;;;;;;0.88;0.40;;;;;;;;;;5054307;28;20043;-59
2021/10/17 03:14:57;;;;;;;0.85;0.40;;;;;;;;;;5053699;28;20032;-58
2021/10/17 03:17:22;;;;;;;1.23;0.40;;;;;;;;;;5058618;28;20066;-58
2021/10/17 03:19:49;;;;;;;0.45;0.38;;;;;;;;;;5057925;28;20124;-58
2021/10/17 03:22:15;;;;;;;1.50;0.47;;;;;;;;;;5052538;28;20119;-58
2021/10/17 03:24:40;;;;;;;0.93;0.60;;;;;;;;;;5056873;28;20559;-58
2021/10/17 03:27:06;;;;;;;0.50;0.35;;;;;;;;;;5051654;28;20064;-59
2021/10/17 03:29:31;;;;;;;1.77;0.52;;;;;;;;;;5054493;28;20029;-58
2021/10/17 03:31:57;;;;;;;0.63;0.50;;;;;;;;;;5054722;28;20056;-59
2021/10/17 03:34:23;;;;;;;0.30;0.30;;;;;;;;;;5052635;28;20044;-58
2021/10/17 03:36:48;;;;;;;0.63;0.50;;;;;;;;;;5057421;28;20479;-58
2021/10/17 03:39:14;;;;;;;0.68;0.40;;;;;;;;;;5054042;28;20490;-58
2021/10/17 03:41:39;;;;;;;0.85;0.40;;;;;;;;;;5049448;28;20407;-58
2021/10/17 03:44:05;;;;;;;3.00;0.50;;;;;;;;;;5053163;28;20488;-58
2021/10/17 03:46:30;;;;;;;1.33;0.35;;;;;;;;;;5052363;28;20032;-58
2021/10/17 03:48:56;;;;;;;1.75;0.50;;;;;;;;;;5053848;28;20565;-59
2021/10/17 03:51:21;;;;;;;0.38;0.35;;;;;;;;;;5057555;28;20039;-58
2021/10/17 03:53:47;;;;;;;0.80;0.43;;;;;;;;;;5055682;28;20476;-58
2021/10/17 03:56:12;;;;;;;0.50;0.50;;;;;;;;;;5052631;28;20032;-58
2021/10/17 03:58:38;;;;;;;0.63;0.30;;;;;;;;;;5050363;28;20112;-58
2021/10/17 04:01:04;;;;;;;0.40;0.30;;;;;;;;;;5052101;28;20047;-58
2021/10/17 04:03:29;;;;;;;0.40;0.30;;;;;;;;;;5053096;28;20041;-59
2021/10/17 04:05:55;;;;;;;0.40;0.30;;;;;;;;;;5047742;28;20029;-58
2021/10/17 04:08:20;;;;;;;0.30;0.30;;;;;;;;;;5033877;28;20028;-58
2021/10/17 04:10:46;;;;;;;1.85;0.30;;;;;;;;;;5040420;28;20697;-58
2021/10/17 04:13:11;;;;;;;0.35;0.30;;;;;;;;;;5049191;28;20025;-58
2021/10/17 04:15:37;;;;;;;0.98;0.20;;;;;;;;;;5054794;28;20629;-58
2021/10/17 04:18:03;;;;;;;0.80;0.38;;;;;;;;;;5048960;28;20074;-58
2021/10/17 04:20:29;;;;;;;0.55;0.32;;;;;;;;;;5053371;28;20086;-58
2021/10/17 04:22:55;;;;;;;0.20;0.20;;;;;;;;;;5054735;28;20028;-58
2021/10/17 04:25:20;;;;;;;0.30;0.28;;;;;;;;;;5054595;28;20527;-58
2021/10/17 04:27:47;;;;;;;0.30;0.30;;;;;;;;;;5052942;28;20032;-58
2021/10/17 04:30:12;;;;;;;0.40;0.30;;;;;;;;;;5052320;28;20325;-58
2021/10/17 04:32:38;;;;;;;0.55;0.28;;;;;;;;;;5052216;28;20292;-58
2021/10/17 04:35:04;;;;;;;0.20;0.20;;;;;;;;;;5051007;28;20525;-58
2021/10/17 04:37:29;;;;;;;0.40;0.30;;;;;;;;;;5056317;28;20041;-58
2021/10/17 04:39:55;;;;;;;0.85;0.30;;;;;;;;;;5053343;28;20031;-58
2021/10/17 04:42:21;;;;;;;0.30;0.20;;;;;;;;;;5051022;28;20458;-59
2021/10/17 04:44:46;;;;;;;0.57;0.30;;;;;;;;;;5042559;28;20037;-58
2021/10/17 04:47:12;;;;;;;0.20;0.20;;;;;;;;;;5056141;28;20405;-58
2021/10/17 04:49:37;;;;;;;0.20;0.20;;;;;;;;;;5051868;28;20040;-58
2021/10/17 04:52:03;;;;;;;0.40;0.30;;;;;;;;;;5040943;28;20031;-57
2021/10/17 04:54:28;;;;;;;0.65;0.30;;;;;;;;;;5057138;28;20039;-58
2021/10/17 04:56:54;;;;;;;0.30;0.28;;;;;;;;;;5038868;28;20044;-56
2021/10/17 04:59:21;;;;;;;0.40;0.20;;;;;;;;;;5037693;28;20333;-58
2021/10/17 05:01:48;;;;;;;0.50;0.30;;;;;;;;;;5060423;28;20522;-58
2021/10/17 05:04:14;;;;;;;0.32;0.28;;;;;;;;;;5059036;28;20135;-58
2021/10/17 05:06:39;;;;;;;0.30;0.22;;;;;;;;;;5059867;28;20100;-59
2021/10/17 05:09:05;;;;;;;1.95;0.30;;;;;;;;;;5043079;28;20045;-58
2021/10/17 05:11:30;;;;;;;0.30;0.30;;;;;;;;;;5038080;28;20056;-59
2021/10/17 05:13:56;;;;;;;1.27;0.35;;;;;;;;;;5059154;28;20028;-58
2021/10/17 05:16:21;;;;;;;0.60;0.30;;;;;;;;;;5047329;28;20051;-58
2021/10/17 05:18:47;;;;;;;0.30;0.30;;;;;;;;;;5060155;28;20116;-58
2021/10/17 05:21:12;;;;;;;0.43;0.20;;;;;;;;;;5060096;28;20032;-59
2021/10/17 05:23:38;;;;;;;0.30;0.20;;;;;;;;;;5033332;28;20032;-59
2021/10/17 05:26:04;;;;;;;0.20;0.20;;;;;;;;;;5056676;28;20025;-58
2021/10/17 05:28:30;;;;;;;0.60;0.30;;;;;;;;;;5060517;28;20402;-59
2021/10/17 05:31:00;;;;;;;0.20;0.20;;;;;;;;;;5040053;28;20036;-58
2021/10/17 05:33:26;;;;;;;0.50;0.30;;;;;;;;;;5058706;28;20029;-58
2021/10/17 05:35:51;;;;;;;0.43;0.20;;;;;;;;;;5046370;28;20033;-59
2021/10/17 05:38:16;;;;;;;0.82;0.30;;;;;;;;;;5061156;28;20541;-59
2021/10/17 05:40:42;;;;;;;0.20;0.20;;;;;;;;;;5051115;28;20028;-59
2021/10/17 05:43:07;;;;;;;1.30;0.30;;;;;;;;;;5055660;28;20060;-59
2021/10/17 05:45:33;;;;;;;0.20;0.20;;;;;;;;;;5057140;28;20526;-58
2021/10/17 05:47:58;;;;;;;0.68;0.30;;;;;;;;;;5054809;28;20061;-59
2021/10/17 05:50:24;;;;;;;0.20;0.20;;;;;;;;;;5037954;28;20450;-59
2021/10/17 05:52:49;;;;;;;1.35;0.30;;;;;;;;;;5053431;28;20052;-59
2021/10/17 05:55:15;;;;;;;1.48;0.30;;;;;;;;;;5057433;28;20098;-58
2021/10/17 05:57:40;;;;;;;0.75;0.30;;;;;;;;;;5055664;28;20037;-59
2021/10/17 06:00:07;;;;;;;0.88;0.30;;;;;;;;;;5056558;28;20790;-58
2021/10/17 06:02:32;;;;;;;1.45;0.20;;;;;;;;;;5055453;28;20029;-58
2021/10/17 06:04:58;;;;;;;0.60;0.25;;;;;;;;;;5052854;28;20557;-59
2021/10/17 06:07:23;;;;;;;0.30;0.20;;;;;;;;;;5055814;28;20025;-59
2021/10/17 06:09:49;;;;;;;0.50;0.30;;;;;;;;;;5054065;28;20068;-60
2021/10/17 06:12:14;;;;;;;0.10;0.10;;;;;;;;;;5055712;28;20033;-59
2021/10/17 06:14:40;;;;;;;0.10;0.10;;;;;;;;;;5055442;28;20056;-58
2021/10/17 06:17:05;;;;;;;0.10;0.10;;;;;;;;;;5050832;28;20343;-59
2021/10/17 06:19:31;;;;;;;0.55;0.28;;;;;;;;;;5052304;28;20032;-59
2021/10/17 06:21:57;;;;;;;0.30;0.20;;;;;;;;;;5056847;28;20024;-58
2021/10/17 06:24:23;;;;;;;0.10;0.10;;;;;;;;;;5035838;28;20051;-58
2021/10/17 06:26:49;;;;;;;0.30;0.30;;;;;;;;;;5052947;28;20041;-58
2021/10/17 06:29:14;;;;;;;0.93;0.22;;;;;;;;;;5056816;28;20020;-62
2021/10/17 06:31:40;;;;;;;2.38;0.38;;;;;;;;;;5052912;28;20046;-59
2021/10/17 06:34:05;;;;;;;1.30;0.20;;;;;;;;;;5051486;28;20111;-58
2021/10/17 06:36:32;;;;;;;2.30;0.32;;;;;;;;;;5057911;28;20028;-59
2021/10/17 06:38:57;;;;;;;1.05;0.30;;;;;;;;;;5054250;28;20025;-58
2021/10/17 06:41:23;;;;;;;0.30;0.30;;;;;;;;;;5053492;28;20021;-58
2021/10/17 06:43:48;;;;;;;2.90;0.57;;;;;;;;;;5058707;28;20041;-58
2021/10/17 06:46:14;;;;;;;1.13;0.30;;;;;;;;;;5055577;28;20051;-58
2021/10/17 06:48:40;;;;;;;1.23;0.25;;;;;;;;;;5052542;28;20029;-58
2021/10/17 06:51:05;;;;;;;0.68;0.28;;;;;;;;;;5062397;28;20028;-58
2021/10/17 06:53:31;;;;;;;2.05;0.20;;;;;;;;;;5055902;28;20067;-59
2021/10/17 06:55:56;;;;;;;0.25;0.20;;;;;;;;;;5058866;28;20030;-58
2021/10/17 06:58:21;;;;;;;0.30;0.30;;;;;;;;;;5051389;28;20072;-59
2021/10/17 07:00:47;;;;;;;1.75;0.20;;;;;;;;;;5056333;28;20484;-59
2021/10/17 07:03:12;;;;;;;1.00;0.20;;;;;;;;;;5057239;28;20064;-59
2021/10/17 07:05:38;;;;;;;0.20;0.20;;;;;;;;;;5058957;28;20431;-59
2021/10/17 07:08:04;;;;;;;0.20;0.20;;;;;;;;;;5055808;28;20028;-59
2021/10/17 07:10:29;;;;;;;0.68;0.30;;;;;;;;;;5053555;28;20503;-59
2021/10/17 07:12:55;;;;;;;0.45;0.20;;;;;;;;;;5050739;28;20035;-59
2021/10/17 07:15:20;;;;;;;0.43;0.20;;;;;;;;;;5052034;28;20035;-59
2021/10/17 07:17:46;;;;;;;0.75;0.30;;;;;;;;;;5052212;28;20032;-59
2021/10/17 07:20:12;;;;;;;1.60;0.20;;;;;;;;;;5051414;28;20475;-60
2021/10/17 07:22:37;;;;;;;1.25;0.20;;;;;;;;;;5050216;28;20095;-59
2021/10/17 07:25:03;;;;;;;0.43;0.32;;;;;;;;;;5060020;28;20067;-59
2021/10/17 07:27:29;;;;;;;1.55;0.40;;;;;;;;;;5051675;28;20086;-59
2021/10/17 07:29:54;;;;;;;0.20;0.20;;;;;;;;;;5052062;28;20503;-59
2021/10/17 07:32:19;;;;;;;1.17;0.40;;;;;;;;;;5052375;28;20376;-59
2021/10/17 07:34:45;;;;;;;0.73;0.20;;;;;;;;;;5037989;28;20032;-59
2021/10/17 07:37:10;;;;;;;0.40;0.20;;;;;;;;;;5051661;28;20041;-59
2021/10/17 07:39:36;;;;;;;1.20;0.55;;;;;;;;;;5049639;28;20074;-60
2021/10/17 07:42:02;;;;;;;2.10;0.40;;;;;;;;;;5050182;28;20133;-59
2021/10/17 07:44:28;;;;;;;0.40;0.40;;;;;;;;;;5053500;28;20445;-58
2021/10/17 07:46:53;;;;;;;0.77;0.40;;;;;;;;;;5050716;28;20103;-59
2021/10/17 07:49:19;;;;;;;0.30;0.30;;;;;;;;;;5032027;28;20071;-58
2021/10/17 07:51:44;;;;;;;0.68;0.40;;;;;;;;;;5051593;28;20028;-59
2021/10/17 07:54:10;;;;;;;2.05;0.43;;;;;;;;;;5050616;28;20039;-59
2021/10/17 07:56:36;;;;;;;0.63;0.43;;;;;;;;;;5038638;28;20060;-59
2021/10/17 07:59:02;;;;;;;0.47;0.32;;;;;;;;;;5049780;28;20114;-59
2021/10/17 08:01:27;;;;;;;1.75;0.30;;;;;;;;;;5051644;28;20112;-59
2021/10/17 08:03:53;;;;;;;0.52;0.45;;;;;;;;;;5060901;28;20111;-59
2021/10/17 08:06:18;;;;;;;3.65;0.50;;;;;;;;;;5056724;28;20043;-59
2021/10/17 08:08:44;;;;;;;0.55;0.40;;;;;;;;;;5053526;28;20028;-59
2021/10/17 08:11:10;;;;;;;0.80;0.50;;;;;;;;;;5052326;28;20590;-59
2021/10/17 08:13:35;;;;;;;0.40;0.30;;;;;;;;;;5047020;28;20028;-59
2021/10/17 08:16:01;;;;;;;0.30;0.30;;;;;;;;;;5049060;28;20593;-59
2021/10/17 08:18:26;;;;;;;0.40;0.30;;;;;;;;;;5049782;28;20171;-58
2021/10/17 08:20:53;;;;;;;0.30;0.30;;;;;;;;;;5049719;28;20103;-59
2021/10/17 08:23:19;;;;;;;4.45;0.40;;;;;;;;;;5055181;28;20074;-58
2021/10/17 08:25:45;;;;;;;0.30;0.30;;;;;;;;;;5052557;28;20505;-59
2021/10/17 08:28:11;;;;;;;0.93;0.20;;;;;;;;;;5057890;28;20043;-59
2021/10/17 08:30:37;;;;;;;0.75;0.40;;;;;;;;;;5059202;28;20020;-59
2021/10/17 08:33:02;;;;;;;1.02;0.30;;;;;;;;;;5064633;28;20063;-59
2021/10/17 08:35:28;;;;;;;3.17;0.30;;;;;;;;;;5044402;28;20034;-59
2021/10/17 08:37:54;;;;;;;1.88;0.20;;;;;;;;;;5057397;28;20037;-58
2021/10/17 08:40:19;;;;;;;6.30;0.45;;;;;;;;;;5057592;28;20124;-59
2021/10/17 08:42:46;;;;;;;2.78;0.30;;;;;;;;;;5053744;28;20059;-59
2021/10/17 08:45:11;;;;;;;0.95;0.32;;;;;;;;;;5052059;28;20052;-58
2021/10/17 08:47:37;;;;;;;0.63;0.32;;;;;;;;;;5042112;28;20032;-57
2021/10/17 08:50:04;;;;;;;0.20;0.20;;;;;;;;;;5058380;28;20033;-58
2021/10/17 08:52:30;;;;;;;0.52;0.30;;;;;;;;;;5064076;28;20091;-58
2021/10/17 08:54:56;;;;;;;1.00;0.20;;;;;;;;;;5062036;28;20120;-60
2021/10/17 08:57:22;;;;;;;0.20;0.20;;;;;;;;;;5042914;28;20052;-60
2021/10/17 08:59:49;;;;;;;0.52;0.45;;;;;;;;;;5055834;28;20032;-59
2021/10/17 09:02:20;;;;;;;0.40;0.30;;;;;;;;;;5061546;28;20108;-59
2021/10/17 09:05:00;;;;;;;0.50;0.20;;;;;;;;;;5056354;28;20036;-59
2021/10/17 09:07:26;;;;;;;0.38;0.30;;;;;;;;;;5055752;28;20181;-59
2021/10/17 09:10:11;;;;;;;0.20;0.20;;;;;;;;;;5059691;28;20570;-59
2021/10/17 09:12:46;;;;;;;0.75;0.22;;;;;;;;;;5051787;28;20070;-60
2021/10/17 09:15:27;;;;;;;0.47;0.30;;;;;;;;;;5038432;28;20580;-58
2021/10/17 09:18:13;;;;;;;0.85;0.30;;;;;;;;;;5044867;28;20020;-58
2021/10/17 09:20:48;;;;;;;0.30;0.20;;;;;;;;;;5048184;28;20548;-58
2021/10/17 09:23:32;;;;;;;0.38;0.30;;;;;;;;;;5051224;28;20131;-58
2021/10/17 09:25:59;;;;;;;0.20;0.20;;;;;;;;;;5053635;28;20039;-58
2021/10/17 09:28:29;;;;;;;0.40;0.30;;;;;;;;;;5041015;28;20039;-58
2021/10/17 09:31:05;;;;;;;1.42;0.40;;;;;;;;;;5062097;28;20074;-59
2021/10/17 09:33:31;;;;;;;0.60;0.30;;;;;;;;;;5061302;28;20099;-59
2021/10/17 09:35:57;;;;;;;0.20;0.20;;;;;;;;;;5061883;28;20036;-58
2021/10/17 09:38:37;;;;;;;0.20;0.20;;;;;;;;;;5053341;28;20024;-59
2021/10/17 09:41:23;;;;;;;3.55;0.30;;;;;;;;;;5047096;28;20029;-58
2021/10/17 09:43:57;;;;;;;0.20;0.20;;;;;;;;;;5060734;28;20111;-58
2021/10/17 09:46:23;;;;;;;0.13;0.13;;;;;;;;;;5059804;28;20391;-58
2021/10/17 09:48:49;;;;;;;0.30;0.30;;;;;;;;;;5057606;28;20028;-58
2021/10/17 09:51:16;;;;;;;0.43;0.30;;;;;;;;;;5061703;28;20543;-58
2021/10/17 09:53:42;;;;;;;0.10;0.10;;;;;;;;;;5060650;28;20108;-58
2021/10/17 09:56:08;;;;;;;0.30;0.20;;;;;;;;;;5060060;28;20107;-58
2021/10/17 09:58:34;;;;;;;0.52;0.10;;;;;;;;;;5058805;28;20021;-58
2021/10/17 10:01:01;;;;;;;0.35;0.28;;;;;;;;;;5055044;28;20033;-58
2021/10/17 10:03:27;;;;;;;0.40;0.28;;;;;;;;;;5059471;28;20032;-59
2021/10/17 10:05:57;;;;;;;0.75;0.30;;;;;;;;;;5062177;28;20050;-58
2021/10/17 10:08:26;;;;;;;0.20;0.20;;;;;;;;;;5064996;28;20069;-58
2021/10/17 10:10:52;;;;;;;0.32;0.28;;;;;;;;;;5059532;28;20478;-59
2021/10/17 10:13:19;;;;;;;0.45;0.15;;;;;;;;;;5053392;28;20078;-59
2021/10/17 10:15:45;;;;;;;0.20;0.20;;;;;;;;;;5058533;28;20033;-57
2021/10/17 10:18:12;;;;;;;0.50;0.25;;;;;;;;;;5044706;28;20028;-62
2021/10/17 10:20:39;;;;;;;0.40;0.30;;;;;;;;;;5043808;28;20518;-58
2021/10/17 10:23:08;;;;;;;0.20;0.20;;;;;;;;;;5058439;28;20089;-58
2021/10/17 10:25:35;;;;;;;0.70;0.40;;;;;;;;;;5059057;28;20120;-58
2021/10/17 10:28:01;;;;;;;0.15;0.15;;;;;;;;;;5055951;28;20035;-58
2021/10/17 10:30:33;;;;;;;1.88;0.20;;;;;;;;;;5054432;28;20032;-58
2021/10/17 10:33:18;;;;;;;0.88;0.15;;;;;;;;;;5051264;28;20020;-57
2021/10/17 10:36:15;;;;;;;0.52;0.20;;;;;;;;;;5052784;28;20038;-58
2021/10/17 10:38:53;;;;;;;1.25;0.20;;;;;;;;;;5056204;28;20064;-58
2021/10/17 10:41:19;;;;;;;0.88;0.20;;;;;;;;;;5056733;28;20483;-59
2021/10/17 10:43:45;;;;;;;0.40;0.20;;;;;;;;;;5041531;28;20076;-59
2021/10/17 10:46:11;;;;;;;1.65;0.20;;;;;;;;;;5036785;28;20076;-59
2021/10/17 10:48:46;;;;;;;0.20;0.20;;;;;;;;;;5036868;28;20033;-59
2021/10/17 10:51:41;;;;;;;2.47;0.30;;;;;;;;;;5038305;28;20558;-59
2021/10/17 10:54:27;;;;;;;0.30;0.30;;;;;;;;;;5028970;28;20403;-58
2021/10/17 10:56:55;;;;;;;0.30;0.20;;;;;;;;;;5034404;28;20281;-58
2021/10/17 10:59:25;;;;;;;0.82;0.20;;;;;;;;;;5037322;28;20036;-58
2021/10/17 11:01:50;;;;;;;2.17;0.20;;;;;;;;;;5032301;28;20048;-57
2021/10/17 11:04:37;;;;;;;2.70;0.40;;;;;;;;;;5037829;28;20025;-58
2021/10/17 11:07:16;;;;;;;0.28;0.20;;;;;;;;;;5034461;28;20025;-58
2021/10/17 11:09:41;;;;;;;0.50;0.38;;;;;;;;;;5036349;28;20033;-58
2021/10/17 11:12:07;;;;;;;0.22;0.22;;;;;;;;;;5032751;28;20029;-58
2021/10/17 11:14:33;;;;;;;0.30;0.30;;;;;;;;;;5034199;28;20025;-59
2021/10/17 11:17:06;;;;;;;0.50;0.30;;;;;;;;;;5029511;28;20033;-57
2021/10/17 11:19:33;;;;;;;0.38;0.20;;;;;;;;;;5031926;28;20025;-58
2021/10/17 11:22:02;;;;;;;0.68;0.30;;;;;;;;;;5028329;28;20480;-58
2021/10/17 11:24:28;;;;;;;0.25;0.20;;;;;;;;;;5033379;28;20094;-57
2021/10/17 11:27:13;;;;;;;1.55;0.40;;;;;;;;;;5033674;28;20025;-56
2021/10/17 11:29:41;;;;;;;0.98;0.28;;;;;;;;;;5034937;28;20087;-56
2021/10/17 11:32:16;;;;;;;0.30;0.30;;;;;;;;;;5030420;28;20107;-57
2021/10/17 11:34:53;;;;;;;0.77;0.20;;;;;;;;;;5030042;28;20029;-57
2021/10/17 11:37:21;;;;;;;0.80;0.40;;;;;;;;;;5031687;28;20102;-56
2021/10/17 11:40:11;;;;;;;0.65;0.20;;;;;;;;;;5036479;28;20464;-57
2021/10/17 11:42:48;;;;;;;1.25;0.30;;;;;;;;;;5036244;28;20543;-56
2021/10/17 11:45:20;;;;;;;0.50;0.30;;;;;;;;;;5050223;28;20044;-56
2021/10/17 11:47:46;;;;;;;;;;;;;;;;;;5052135;28;20040;-56
2021/10/17 11:50:12;;;;;;;0.50;0.30;;;;;;;;;;5048778;28;19956;-56
2021/10/17 11:52:51;;;;;;;0.35;0.30;;;;;;;;;;5058636;28;20059;-57
2021/10/17 11:55:39;;;;;;;0.47;0.20;;;;;;;;;;5054905;28;20040;-57
2021/10/17 11:58:23;;;;;;;0.95;0.30;;;;;;;;;;5050899;28;20033;-55
2021/10/17 12:00:50;;;;;;;0.20;0.20;;;;;;;;;;5056941;28;20028;-57
2021/10/17 12:03:18;;;;;;;0.40;0.30;;;;;;;;;;5060396;28;20463;-57
2021/10/17 12:05:44;;;;;;;2.20;0.43;;;;;;;;;;5063599;28;20025;-57
2021/10/17 12:08:25;;;;;;;0.43;0.30;;;;;;;;;;5059009;28;20109;-56
2021/10/17 12:10:58;;;;;;;2.42;0.73;;;;;;;;;;5052197;28;20036;-57
2021/10/17 12:13:24;;;;;;;0.38;0.32;;;;;;;;;;5048573;28;20032;-57
2021/10/17 12:16:02;;;;;;;0.30;0.20;;;;;;;;;;5057087;28;20029;-57
2021/10/17 12:18:29;;;;;;;0.20;0.20;;;;;;;;;;5052286;28;20463;-58
2021/10/17 12:20:55;;;;;;;2.03;0.10;;;;;;;;;;5055358;28;20024;-58
2021/10/17 12:23:21;;;;;;;0.22;0.10;;;;;;;;;;5058476;28;20048;-58
2021/10/17 12:25:46;;;;;;;0.77;0.20;;;;;;;;;;5053338;28;20064;-57
2021/10/17 12:28:16;;;;;;;0.40;0.20;;;;;;;;;;5060674;28;20491;-57
2021/10/17 12:30:47;;;;;;;0.40;0.20;;;;;;;;;;5058203;28;20035;-57
2021/10/17 12:33:23;;;;;;;0.40;0.20;;;;;;;;;;5059297;28;20029;-58
2021/10/17 12:35:49;;;;;;;0.20;0.20;;;;;;;;;;5053859;28;20060;-57
2021/10/17 12:38:17;;;;;;;0.50;0.30;;;;;;;;;;5054378;28;20047;-57
2021/10/17 12:40:59;;;;;;;3.10;0.20;;;;;;;;;;5054904;28;20036;-57
2021/10/17 12:43:37;;;;;;;0.38;0.20;;;;;;;;;;5053807;28;20036;-57
2021/10/17 12:46:16;;;;;;;0.20;0.20;;;;;;;;;;5052284;28;20040;-57
2021/10/17 12:48:44;;;;;;;0.20;0.20;;;;;;;;;;5052066;28;20626;-57
2021/10/17 12:51:28;;;;;;;0.38;0.20;;;;;;;;;;5052080;28;20478;-57
2021/10/17 12:54:26;;;;;;;0.85;0.28;;;;;;;;;;5049968;28;20029;-57
2021/10/17 12:56:52;;;;;;;0.52;0.20;;;;;;;;;;5051794;28;20036;-57
2021/10/17 12:59:28;;;;;;;0.52;0.32;;;;;;;;;;5056599;28;20021;-57
2021/10/17 13:02:04;;;;;;;1.27;0.70;;;;;;;;;;5055630;28;20094;-57
2021/10/17 13:04:56;;;;;;;0.95;0.70;;;;;;;;;;5056546;28;20500;-57
2021/10/17 13:07:25;;;;;;;;;;;;;;;;;;5055753;28;20032;-57
2021/10/17 13:10:27;;;;;;;3.97;0.70;;;;;;;;;;5050514;28;20700;-57
2021/10/17 13:12:54;;;;;;;0.90;0.65;;;;;;;;;;5043546;28;20033;-57
2021/10/17 13:15:26;;;;;;;0.98;0.57;;;;;;;;;;5052580;28;20423;-57
2021/10/17 13:17:55;;;;;;;0.60;0.30;;;;;;;;;;5052008;28;20025;-57
2021/10/17 13:20:28;;;;;;;1.05;0.20;;;;;;;;;;5063067;28;20027;-57
2021/10/17 13:23:03;;;;;;;0.35;0.20;;;;;;;;;;5055689;28;20029;-57
2021/10/17 13:25:30;;;;;;;0.90;0.30;;;;;;;;;;5060943;28;20028;-57
2021/10/17 13:27:59;;;;;;;1.23;0.50;;;;;;;;;;5042407;28;20108;-57
2021/10/17 13:30:27;;;;;;;1.42;0.40;;;;;;;;;;5061283;28;20117;-57
2021/10/17 13:32:54;;;;;;;0.93;0.40;;;;;;;;;;5063483;28;20544;-57
2021/10/17 13:35:20;;;;;;;0.90;0.60;;;;;;;;;;5057801;28;20044;-57
2021/10/17 13:37:46;;;;;;;2.88;0.50;;;;;;;;;;5053691;28;20050;-57
2021/10/17 13:40:17;;;;;;;2.40;0.40;;;;;;;;;;5055001;28;20120;-57
2021/10/17 13:42:43;;;;;;;0.47;0.40;;;;;;;;;;5050823;28;20512;-57
2021/10/17 13:45:09;;;;;;;0.30;0.30;;;;;;;;;;5053562;28;20041;-57
2021/10/17 13:47:35;;;;;;;2.95;0.50;;;;;;;;;;5067517;28;20020;-58
2021/10/17 13:50:00;;;;;;;0.82;0.57;;;;;;;;;;5067479;28;20039;-58
2021/10/17 13:52:26;;;;;;;0.50;0.50;;;;;;;;;;5064081;28;20406;-58
2021/10/17 13:54:52;;;;;;;0.68;0.50;;;;;;;;;;5062505;28;20107;-57
2021/10/17 13:57:19;;;;;;;1.20;0.52;;;;;;;;;;5054818;28;20032;-56
2021/10/17 13:59:45;;;;;;;0.60;0.40;;;;;;;;;;5056573;28;20028;-57
2021/10/17 14:02:11;;;;;;;1.10;0.40;;;;;;;;;;5056736;28;20158;-58
2021/10/17 14:04:37;;;;;;;0.73;0.40;;;;;;;;;;5053032;28;20112;-58
2021/10/17 14:07:03;;;;;;;0.82;0.50;;;;;;;;;;5058806;28;20050;-58
2021/10/17 14:09:28;;;;;;;2.00;0.50;;;;;;;;;;5059234;28;20029;-58
2021/10/17 14:11:54;;;;;;;2.35;0.60;;;;;;;;;;5057682;28;20028;-58
2021/10/17 14:14:22;;;;;;;0.52;0.38;;;;;;;;;;5055293;28;20040;-58
2021/10/17 14:16:48;;;;;;;1.95;0.60;;;;;;;;;;5058711;28;20504;-59
2021/10/17 14:19:13;;;;;;;0.38;0.38;;;;;;;;;;5053792;28;20041;-58
2021/10/17 14:21:40;;;;;;;0.95;0.50;;;;;;;;;;5061058;28;20486;-58
2021/10/17 14:24:06;;;;;;;0.60;0.50;;;;;;;;;;5060965;28;20442;-58
2021/10/17 14:26:32;;;;;;;4.65;0.70;;;;;;;;;;5063311;28;20039;-58
2021/10/17 14:28:57;;;;;;;0.40;0.40;;;;;;;;;;5064629;28;20021;-58
2021/10/17 14:31:23;;;;;;;0.55;0.40;;;;;;;;;;5059872;28;20059;-59
2021/10/17 14:33:49;;;;;;;0.68;0.40;;;;;;;;;;5058082;28;20037;-59
2021/10/17 14:36:16;;;;;;;0.40;0.30;;;;;;;;;;5057601;28;20028;-59
2021/10/17 14:38:42;;;;;;;0.75;0.40;;;;;;;;;;5041749;28;20032;-58
2021/10/17 14:41:08;;;;;;;1.17;0.38;;;;;;;;;;5060505;28;20032;-59
2021/10/17 14:43:33;;;;;;;1.95;0.63;;;;;;;;;;5061398;28;20073;-59
2021/10/17 14:45:59;;;;;;;0.50;0.50;;;;;;;;;;5061943;28;20110;-59